Pawleys Island, South Carolina
Current Conditions -  °F | °C
As of 9:35 AM on Saturday 22 Nov 2014 (Local Time) from KGGE Reporting Station
Clear Clear  
Wind Chill: 46°   Ceiling: Unl
Heat Index: 48°   Visibility: 10mi
Dew Point: 41°   Wind: 6mph
Humidity: 76%   Direction: 30°NNE
Pressure: 30.54"   Gusts: NA
Location:  33.43°N, 79.12°W
Report Text: KGGE 221435Z AUTO 03005KT 10SM CLR 09/05 A3054 RMK AO2
Loading
Personal Weather Stations






























Interactive Weather Map New forecast layout! Learn more

10-Day Weather Forecast

Advertisements
Track Severe Weather on mobile